Portada
METAR-TAF:

METAR-TAF

Aeroports :

Tomsk, Rússia

latitud: 56-23-12N, longitud: 085-12-38E, altitud: 182 m

Observació

L'informe es va fer fa 21 minuts, a les 14:30 UTC
Vent 6 kt del Oest/Sud-Oest
Temperatura 19°C
Humitat 78%
Pressió 1019 hPa
Visibilitat 10 km o més
Escasses núvols a una alçada de 4900 ft

METAR: UNTT 251430Z 24003MPS 9999 FEW049 19/15 Q1019 R21/190055 NOSIG RMK QFE749

Hora: 21:51 (14:51 UTC)

Pronòstic

L'informe es va fer fa 53 minuts, a les 13:58 UTC
Pronòstic vàlid del 25 a les 15 UTC al 25 a les 24 UTC
Vent 6 kt del Oest/Nord-Oest
Visibilitat 10 km o més
Núvols disperses a una alçada de 5100 ft, Cumulonimbus.
Evolucionant progressivament
l' 25 a les 17 UTC al 25 a les 19 UTC
Vent 6 kt del Nord
Temporalment
l' 25 a les 22 UTC al 25 a les 24 UTC
Visibilitat: 0350 m
Cel ennuvolat a una alçada de 200 ft
boira

TAF: UNTT 251358Z 2515/2524 29003MPS 9999 SCT051CB BECMG 2517/2519 36003MPS TEMPO 2522/2524 0350 FG BKN002

Observacions i pronòstics meteorològics de més de 4000 aeroports (METAR i TAF).

Les estacions disponibles són els punts grocs i vermells al mapa.

Posi el ratolí al punt desitjat per veure el nom de l'estació.

Feu clic per veure les observacions i els pronòstics meteorològics.

Per canviar el mapa: feu clic els botons verds amb una creu de color negre per apropar; al botó verd amb un guió per allunyar la imatge; o en les fletxes verdes per a mapes adjacents.


METAR-TAF: